Terminal Aerodrome Forecast
Issued by NWS Sioux Falls, SD

Home | Current Version | Previous Version | Text Only | Print | Product List | Glossary On
Versions: 1 2 3 4 5 6 7 8 9 10 11 12 13 14 15 16 17
000
FTUS43 KFSD 232221 AAA
TAFSUX
TAF AMD
KSUX 232221Z 2322/2418 19012G20KT 6SM TSRA SCT025 BKN045CB
      TEMPO 2322/2323 VRB20G30KT 2SM +TSRA BKN025CB OVC070
     FM232300 17011KT P6SM VCTS SCT025 BKN045CB
     FM240000 17008KT P6SM BKN050 BKN080
     FM240900 16004KT 4SM BR SCT003 SCT120
     FM241400 15005KT P6SM BKN250=

USA.gov is the U.S. government's official web portal to all federal, state and local government web resources and services.